»·PEaware :: N6462F KSNA-KBUR

N6462F :: KSNA-KBUR

FLIGHT INFORMATION

Flight Status: Arrived
Operator: Privately registered:
United States
More flights under this callsign
Pilot: Bruce C. (32376)
Aircraft: CESSNA 182 SKYLANE
(C182)
More flights by this aircraft type
Origin: KSNA John Wayne-Orange Co
United States
Destination: KBUR Bob Hope-Burbank
United States
More flights between these airports :: More routes between these airports
Route: +SLI V23 POPPR SMO125 SMO SMO311 SILEX
File this flight plan on PilotEdge
Remarks:
Altitude:
(Current/Filed)
5,000ft
Speed:
(Current/Filed)
100kts
Departed: 20-Nov-20 10:10 AM
Arrived: 20-Nov-20 11:11 AM
Distance/Time
Traveled:
40nm/1:01
Distance/Time
To Go:
Arrived

Flight Plot

Page will automatically refresh every two minutes.


Map Options




Map Legend


Flown Route
Filed Route
Departure Airport
Arrival Airport
Navaid (VOR, NDB)
Fix

Horizontal Profiles

Position Reports

Time Latitude Longitude Heading Altitude Ground
Speed
20-Nov-20 09:52 33.676317 -117.870540 25 59ft 0kts
20-Nov-20 09:53 33.676318 -117.870540 25 59ft 0kts
20-Nov-20 09:54 33.676318 -117.870540 25 59ft 0kts
20-Nov-20 09:55 33.676319 -117.870540 25 59ft 0kts
20-Nov-20 09:56 33.676319 -117.870539 25 59ft 0kts
20-Nov-20 09:57 33.676320 -117.870539 25 59ft 0kts
20-Nov-20 09:58 33.676320 -117.870539 25 59ft 0kts
20-Nov-20 09:59 33.676320 -117.870539 25 59ft 0kts
20-Nov-20 10:00 33.676321 -117.870538 25 59ft 0kts
20-Nov-20 10:01 33.676321 -117.870538 25 59ft 0kts
20-Nov-20 10:02 33.676322 -117.870538 25 59ft 0kts
20-Nov-20 10:03 33.676322 -117.870538 25 59ft 0kts
20-Nov-20 10:04 33.676323 -117.870537 25 59ft 0kts
20-Nov-20 10:05 33.676323 -117.870537 25 59ft 0kts
20-Nov-20 10:06 33.676759 -117.869969 42 59ft 13kts
20-Nov-20 10:07 33.680271 -117.867646 22 59ft 14kts
20-Nov-20 10:08 33.681188 -117.866585 95 59ft 5kts
20-Nov-20 10:09 33.675073 -117.869239 207 92ft 83kts
20-Nov-20 10:10 33.652668 -117.884351 219 735ft 93kts
20-Nov-20 10:11 33.637705 -117.906257 231 1539ft 84kts
20-Nov-20 10:12 33.621354 -117.930827 231 1818ft 111kts
20-Nov-20 10:13 33.601651 -117.960461 231 1799ft 113kts
20-Nov-20 10:14 33.581960 -117.990075 231 1799ft 113kts
20-Nov-20 10:20 33.676340 -117.870598 38 59ft 0kts
20-Nov-20 10:21 33.676340 -117.870598 38 59ft 0kts
20-Nov-20 10:22 33.676341 -117.870598 38 59ft 0kts
20-Nov-20 10:23 33.676341 -117.870597 38 59ft 0kts
20-Nov-20 10:24 33.676341 -117.870597 38 59ft 0kts
20-Nov-20 10:25 33.676342 -117.870597 38 59ft 0kts
20-Nov-20 10:26 33.676342 -117.870596 38 59ft 0kts
20-Nov-20 10:27 33.676342 -117.870596 38 59ft 0kts
20-Nov-20 10:28 33.677347 -117.869298 31 59ft 9kts
20-Nov-20 10:29 33.681113 -117.867001 50 59ft 9kts
20-Nov-20 10:30 33.680699 -117.865760 187 59ft 11kts
20-Nov-20 10:31 33.666367 -117.875649 212 421ft 88kts
20-Nov-20 10:32 33.651845 -117.896973 231 1204ft 83kts
20-Nov-20 10:33 33.637354 -117.919125 231 1937ft 84kts
20-Nov-20 10:34 33.622751 -117.941446 231 2685ft 85kts
20-Nov-20 10:35 33.608217 -117.964100 244 3398ft 86kts
20-Nov-20 10:36 33.623736 -117.983692 331 3845ft 105kts
20-Nov-20 10:37 33.651389 -118.001533 331 3807ft 114kts
20-Nov-20 10:38 33.678968 -118.019328 331 3808ft 112kts
20-Nov-20 10:39 33.700612 -118.044408 301 3810ft 111kts
20-Nov-20 10:40 33.718083 -118.075510 305 3809ft 112kts
20-Nov-20 10:41 33.736033 -118.106106 305 3809ft 112kts
20-Nov-20 10:42 33.754006 -118.136696 305 3799ft 112kts
20-Nov-20 10:43 33.771985 -118.167322 305 3799ft 112kts
20-Nov-20 10:44 33.789915 -118.197890 305 3799ft 112kts
20-Nov-20 10:45 33.807859 -118.228507 305 3799ft 112kts
20-Nov-20 10:46 33.825794 -118.259134 305 3799ft 112kts
20-Nov-20 10:47 33.843948 -118.289692 313 3798ft 112kts
20-Nov-20 10:48 33.867944 -118.313630 320 3799ft 112kts
20-Nov-20 10:49 33.891855 -118.337567 320 3799ft 112kts
20-Nov-20 10:50 33.915826 -118.361620 320 3799ft 112kts
20-Nov-20 10:51 33.939773 -118.385669 320 3799ft 112kts
20-Nov-20 10:52 33.963703 -118.409719 320 3799ft 112kts
20-Nov-20 10:53 33.987653 -118.433809 320 3799ft 112kts
20-Nov-20 10:54 34.011640 -118.457880 322 3799ft 112kts
20-Nov-20 10:55 34.031914 -118.485594 300 3800ft 112kts
20-Nov-20 10:56 34.048217 -118.517637 301 3799ft 112kts
20-Nov-20 10:57 34.064709 -118.549555 301 3799ft 112kts
20-Nov-20 10:58 34.081226 -118.581516 301 3799ft 112kts
20-Nov-20 10:59 34.097713 -118.613413 301 3799ft 112kts
20-Nov-20 11:00 34.125175 -118.623508 1 3801ft 112kts
20-Nov-20 11:01 34.156351 -118.622163 5 3798ft 112kts
20-Nov-20 11:02 34.175037 -118.593887 61 3800ft 112kts
20-Nov-20 11:03 34.189692 -118.560701 61 3799ft 112kts
20-Nov-20 11:04 34.200280 -118.524109 87 3492ft 126kts
20-Nov-20 11:05 34.199598 -118.482437 92 2872ft 98kts
20-Nov-20 11:06 34.199032 -118.456250 90 2174ft 70kts
20-Nov-20 11:07 34.198759 -118.432189 90 1821ft 74kts
20-Nov-20 11:08 34.198434 -118.407633 90 1424ft 73kts
20-Nov-20 11:09 34.198049 -118.382595 92 1032ft 71kts
20-Nov-20 11:10 34.197720 -118.360331 136 781ft 25kts
20-Nov-20 11:11 34.196406 -118.359035 151 781ft 0kts

Navigation Log

Ident Type
Flight plan parsing failed, navigation log unavailable